Shuya, Russia
Current Conditions -  °F | °C
As of 1:00 PM on Tuesday 27 Jan 2015 (Local Time) from UUDL Reporting Station
Light Snow Light Snow  
Wind Chill:   Ceiling: 900
Heat Index: 16°   Visibility: 3mi
Dew Point: 10°   Wind: 4mph
Humidity: 79%   Direction: 160°SSE
Pressure: 30.12"   Gusts: NA
Location:  56.85°N, 41.36°E
Report Text: UUDL 271000Z 16002MPS 5000 -SN OVC009 M09/M12 Q1020 NOSIG RMKQFE757 23750449
Loading
Personal Weather Stations






























Interactive Weather Map New forecast layout! Learn more

10-Day Weather Forecast

Advertisements
Track Severe Weather on mobile